Página principal
METAR-TAF:

METAR-TAF

Aeroportos :

Duchambe, Tadjiquistão

latitude: 38-33N, longitude: 068-47E, altura: 803 m

Observação actual do tempo

O boletim foi feito há 27 minutos, às 17:00 UTC
Vento 2 kt com direcção variável
Temperatura 24°C
Humidade 50%
Pressão 1010 hPa
Visibilidade 10 km ou mais

METAR: UTDD 281700Z VRB01MPS 9999 NSC 24/13 Q1010 R09/D NOSIG RMK QFE690/0920

Hora: 22:27 (17:27 UTC)

Previsão

O boletim foi feito há 2 horas e 27 minutos, às 15:00 UTC
Previsão válida de 28 às 16 UTC a 29 às 04 UTC
Vento 4 kt com direcção variável
Visibilidade: 6000 m
Poucas nuvensa uma altura de 6000 ft, Cumulonimbus.
Nuvens dispersasa uma altura de 10000 ft
Temporariamente
de 28 às 16 UTC a 29 às 04 UTC
Vento 14 kt de oeste com rajadas de 23 kt
Probabilidade 40% :
Temporariamente
de 28 às 16 UTC a 29 às 04 UTC
trovoada

TAF: UTDD 281500Z 2816/2904 VRB02MPS 6000 FEW060CB SCT100 TEMPO 2816/2904 27007G12MPS PROB40 TEMPO 2816/2904 TS

Observações e previsões do tempo de mais de 4000 aeroportos (mensagens METAR e TAF).

As estações disponíveis são os pontos amarelos e vermelhos sobre o mapa.

Mova o rato sobre o mapa para ver o nome da estação.

Depois clique no ponto para visualizar as observações e previsões meteorológicas.

Para alterar o mapa : clique nos botões verdes com uma cruz preta para aumentar o zoom; no botão verde com uma pitada de zoom; ou nas setas verdes para mapas adjacentes.


METAR-TAF: